sensor_id;sensor_type;location;lat;lon;timestamp;P1;durP1;ratioP1;P2;durP2;ratioP2
27778;SDS011;30234;48.090;11.464;2023-04-19T00:03:12;11.65;;;7.65;;
27778;SDS011;30234;48.090;11.464;2023-04-19T00:07:13;9.65;;;7.03;;
27778;SDS011;30234;48.090;11.464;2023-04-19T00:11:15;11.45;;;8.20;;
27778;SDS011;30234;48.090;11.464;2023-04-19T00:15:17;13.60;;;8.20;;
27778;SDS011;30234;48.090;11.464;2023-04-19T00:19:18;11.23;;;8.20;;
27778;SDS011;30234;48.090;11.464;2023-04-19T00:23:20;12.68;;;7.43;;
27778;SDS011;30234;48.090;11.464;2023-04-19T00:27:21;11.40;;;8.20;;
27778;SDS011;30234;48.090;11.464;2023-04-19T00:31:25;12.23;;;8.30;;
27778;SDS011;30234;48.090;11.464;2023-04-19T00:35:25;10.60;;;7.78;;
27778;SDS011;30234;48.090;11.464;2023-04-19T00:39:26;11.10;;;8.27;;
27778;SDS011;30234;48.090;11.464;2023-04-19T00:43:27;11.02;;;8.43;;
27778;SDS011;30234;48.090;11.464;2023-04-19T00:47:29;14.10;;;8.20;;
27778;SDS011;30234;48.090;11.464;2023-04-19T00:51:29;13.50;;;7.63;;
27778;SDS011;30234;48.090;11.464;2023-04-19T00:55:31;13.00;;;8.25;;
27778;SDS011;30234;48.090;11.464;2023-04-19T00:59:32;12.18;;;9.10;;
27778;SDS011;30234;48.090;11.464;2023-04-19T01:03:34;14.02;;;8.60;;
27778;SDS011;30234;48.090;11.464;2023-04-19T01:07:35;14.02;;;9.35;;
27778;SDS011;30234;48.090;11.464;2023-04-19T01:11:39;12.70;;;8.65;;
27778;SDS011;30234;48.090;11.464;2023-04-19T01:15:40;14.20;;;9.38;;
27778;SDS011;30234;48.090;11.464;2023-04-19T01:19:41;14.93;;;8.60;;
27778;SDS011;30234;48.090;11.464;2023-04-19T01:23:42;14.38;;;8.77;;
27778;SDS011;30234;48.090;11.464;2023-04-19T01:27:43;15.73;;;8.90;;
27778;SDS011;30234;48.090;11.464;2023-04-19T01:31:43;12.65;;;8.90;;
27778;SDS011;30234;48.090;11.464;2023-04-19T01:35:48;11.68;;;8.93;;
27778;SDS011;30234;48.090;11.464;2023-04-19T01:39:49;12.13;;;8.43;;
27778;SDS011;30234;48.090;11.464;2023-04-19T01:43:50;13.70;;;8.93;;
27778;SDS011;30234;48.090;11.464;2023-04-19T01:47:51;10.52;;;8.13;;
27778;SDS011;30234;48.090;11.464;2023-04-19T01:51:52;13.38;;;8.88;;
27778;SDS011;30234;48.090;11.464;2023-04-19T01:55:53;12.13;;;9.13;;
27778;SDS011;30234;48.090;11.464;2023-04-19T01:59:54;11.57;;;7.72;;
27778;SDS011;30234;48.090;11.464;2023-04-19T02:03:56;11.02;;;7.80;;
27778;SDS011;30234;48.090;11.464;2023-04-19T02:07:57;11.75;;;8.35;;
27778;SDS011;30234;48.090;11.464;2023-04-19T02:11:58;13.75;;;8.77;;
27778;SDS011;30234;48.090;11.464;2023-04-19T02:15:58;15.15;;;8.77;;
27778;SDS011;30234;48.090;11.464;2023-04-19T02:20:02;13.50;;;10.00;;
27778;SDS011;30234;48.090;11.464;2023-04-19T02:24:05;14.05;;;9.43;;
27778;SDS011;30234;48.090;11.464;2023-04-19T02:28:06;12.73;;;10.35;;
27778;SDS011;30234;48.090;11.464;2023-04-19T02:32:11;15.75;;;10.75;;
27778;SDS011;30234;48.090;11.464;2023-04-19T02:36:12;14.40;;;10.25;;
27778;SDS011;30234;48.090;11.464;2023-04-19T02:40:13;15.23;;;10.82;;
27778;SDS011;30234;48.090;11.464;2023-04-19T02:44:15;17.25;;;12.40;;
27778;SDS011;30234;48.090;11.464;2023-04-19T02:48:16;15.00;;;10.55;;
27778;SDS011;30234;48.090;11.464;2023-04-19T02:52:18;15.13;;;11.07;;
27778;SDS011;30234;48.090;11.464;2023-04-19T02:56:19;18.65;;;12.48;;
27778;SDS011;30234;48.090;11.464;2023-04-19T03:00:20;17.17;;;12.10;;
27778;SDS011;30234;48.090;11.464;2023-04-19T03:04:22;18.88;;;11.30;;
27778;SDS011;30234;48.090;11.464;2023-04-19T03:08:23;18.75;;;12.57;;
27778;SDS011;30234;48.090;11.464;2023-04-19T03:12:24;18.17;;;12.95;;
27778;SDS011;30234;48.090;11.464;2023-04-19T03:16:25;18.45;;;12.85;;
27778;SDS011;30234;48.090;11.464;2023-04-19T03:20:27;22.48;;;14.45;;
27778;SDS011;30234;48.090;11.464;2023-04-19T03:24:28;20.10;;;13.77;;
27778;SDS011;30234;48.090;11.464;2023-04-19T03:28:30;16.48;;;12.23;;
27778;SDS011;30234;48.090;11.464;2023-04-19T03:32:31;15.15;;;11.82;;
27778;SDS011;30234;48.090;11.464;2023-04-19T03:36:32;19.58;;;14.73;;
27778;SDS011;30234;48.090;11.464;2023-04-19T03:40:35;18.55;;;13.52;;
27778;SDS011;30234;48.090;11.464;2023-04-19T03:44:40;20.60;;;14.20;;
27778;SDS011;30234;48.090;11.464;2023-04-19T03:48:41;20.75;;;14.55;;
27778;SDS011;30234;48.090;11.464;2023-04-19T03:52:42;19.50;;;14.40;;
27778;SDS011;30234;48.090;11.464;2023-04-19T03:56:43;20.45;;;15.15;;
27778;SDS011;30234;48.090;11.464;2023-04-19T04:00:47;18.08;;;13.93;;
27778;SDS011;30234;48.090;11.464;2023-04-19T04:04:52;19.15;;;14.43;;
27778;SDS011;30234;48.090;11.464;2023-04-19T04:08:54;19.92;;;14.70;;
27778;SDS011;30234;48.090;11.464;2023-04-19T04:12:58;19.75;;;15.55;;
27778;SDS011;30234;48.090;11.464;2023-04-19T04:17:07;22.10;;;16.13;;
27778;SDS011;30234;48.090;11.464;2023-04-19T04:21:14;25.77;;;16.50;;
27778;SDS011;30234;48.090;11.464;2023-04-19T04:25:25;23.23;;;15.82;;
27778;SDS011;30234;48.090;11.464;2023-04-19T04:29:31;23.20;;;17.10;;
27778;SDS011;30234;48.090;11.464;2023-04-19T04:33:33;24.58;;;17.75;;
27778;SDS011;30234;48.090;11.464;2023-04-19T04:37:37;26.77;;;17.02;;
27778;SDS011;30234;48.090;11.464;2023-04-19T04:41:41;28.35;;;18.92;;
27778;SDS011;30234;48.090;11.464;2023-04-19T04:45:43;25.23;;;17.70;;
27778;SDS011;30234;48.090;11.464;2023-04-19T04:49:47;28.35;;;18.30;;
27778;SDS011;30234;48.090;11.464;2023-04-19T04:53:57;28.05;;;19.10;;
27778;SDS011;30234;48.090;11.464;2023-04-19T04:58:04;27.63;;;19.08;;
27778;SDS011;30234;48.090;11.464;2023-04-19T05:02:07;31.08;;;19.70;;
27778;SDS011;30234;48.090;11.464;2023-04-19T05:06:09;29.08;;;19.38;;
27778;SDS011;30234;48.090;11.464;2023-04-19T05:10:10;32.28;;;22.50;;
27778;SDS011;30234;48.090;11.464;2023-04-19T05:14:22;35.13;;;20.65;;
27778;SDS011;30234;48.090;11.464;2023-04-19T05:18:23;31.02;;;20.17;;
27778;SDS011;30234;48.090;11.464;2023-04-19T05:22:27;28.92;;;19.00;;
27778;SDS011;30234;48.090;11.464;2023-04-19T05:26:28;27.80;;;18.98;;
27778;SDS011;30234;48.090;11.464;2023-04-19T05:30:38;29.05;;;20.05;;
27778;SDS011;30234;48.090;11.464;2023-04-19T05:34:52;32.85;;;21.00;;
27778;SDS011;30234;48.090;11.464;2023-04-19T05:39:20;27.88;;;17.40;;
27778;SDS011;30234;48.090;11.464;2023-04-19T05:43:32;26.55;;;18.40;;
27778;SDS011;30234;48.090;11.464;2023-04-19T05:47:36;27.23;;;18.05;;
27778;SDS011;30234;48.090;11.464;2023-04-19T05:51:41;26.27;;;18.02;;
27778;SDS011;30234;48.090;11.464;2023-04-19T05:55:45;27.58;;;18.52;;
27778;SDS011;30234;48.090;11.464;2023-04-19T05:59:51;26.58;;;18.17;;
27778;SDS011;30234;48.090;11.464;2023-04-19T06:03:52;27.35;;;18.17;;
27778;SDS011;30234;48.090;11.464;2023-04-19T06:07:56;32.13;;;19.90;;
27778;SDS011;30234;48.090;11.464;2023-04-19T06:12:13;30.58;;;18.65;;
27778;SDS011;30234;48.090;11.464;2023-04-19T06:16:17;32.25;;;19.58;;
27778;SDS011;30234;48.090;11.464;2023-04-19T06:20:42;30.55;;;18.65;;
27778;SDS011;30234;48.090;11.464;2023-04-19T06:24:47;31.23;;;18.73;;
27778;SDS011;30234;48.090;11.464;2023-04-19T06:47:32;26.58;;;17.83;;
27778;SDS011;30234;48.090;11.464;2023-04-19T07:08:56;30.05;;;19.27;;
27778;SDS011;30234;48.090;11.464;2023-04-19T07:14:07;29.40;;;19.05;;
27778;SDS011;30234;48.090;11.464;2023-04-19T07:45:37;26.10;;;17.40;;
27778;SDS011;30234;48.090;11.464;2023-04-19T07:49:51;31.77;;;19.27;;
27778;SDS011;30234;48.090;11.464;2023-04-19T07:59:59;26.75;;;16.75;;
27778;SDS011;30234;48.090;11.464;2023-04-19T08:05:02;25.92;;;15.43;;
27778;SDS011;30234;48.090;11.464;2023-04-19T08:10:19;25.67;;;15.27;;
27778;SDS011;30234;48.090;11.464;2023-04-19T08:21:07;23.67;;;15.43;;
27778;SDS011;30234;48.090;11.464;2023-04-19T08:25:38;28.00;;;15.60;;
27778;SDS011;30234;48.090;11.464;2023-04-19T08:29:39;21.48;;;13.82;;
27778;SDS011;30234;48.090;11.464;2023-04-19T08:33:40;17.45;;;12.82;;
27778;SDS011;30234;48.090;11.464;2023-04-19T08:37:40;21.92;;;13.82;;
27778;SDS011;30234;48.090;11.464;2023-04-19T08:41:42;24.17;;;13.88;;
27778;SDS011;30234;48.090;11.464;2023-04-19T08:45:45;22.95;;;14.68;;
27778;SDS011;30234;48.090;11.464;2023-04-19T08:49:47;21.52;;;13.82;;
27778;SDS011;30234;48.090;11.464;2023-04-19T08:53:48;21.67;;;14.20;;
27778;SDS011;30234;48.090;11.464;2023-04-19T08:57:53;26.52;;;14.70;;
27778;SDS011;30234;48.090;11.464;2023-04-19T09:01:56;19.70;;;13.30;;
27778;SDS011;30234;48.090;11.464;2023-04-19T09:06:00;20.13;;;13.63;;
27778;SDS011;30234;48.090;11.464;2023-04-19T09:10:08;19.25;;;12.50;;
27778;SDS011;30234;48.090;11.464;2023-04-19T09:14:15;21.17;;;13.52;;
27778;SDS011;30234;48.090;11.464;2023-04-19T09:18:18;20.45;;;13.38;;
27778;SDS011;30234;48.090;11.464;2023-04-19T09:22:19;21.60;;;13.82;;
27778;SDS011;30234;48.090;11.464;2023-04-19T09:26:21;20.80;;;13.52;;
27778;SDS011;30234;48.090;11.464;2023-04-19T09:30:28;25.15;;;13.32;;
27778;SDS011;30234;48.090;11.464;2023-04-19T09:39:03;21.80;;;13.82;;
27778;SDS011;30234;48.090;11.464;2023-04-19T09:43:04;22.10;;;14.25;;
27778;SDS011;30234;48.090;11.464;2023-04-19T09:47:20;18.70;;;12.65;;
27778;SDS011;30234;48.090;11.464;2023-04-19T09:51:38;18.67;;;12.17;;
27778;SDS011;30234;48.090;11.464;2023-04-19T09:55:40;18.58;;;12.45;;
27778;SDS011;30234;48.090;11.464;2023-04-19T09:59:42;22.60;;;12.65;;
27778;SDS011;30234;48.090;11.464;2023-04-19T10:03:47;20.55;;;11.80;;
27778;SDS011;30234;48.090;11.464;2023-04-19T10:07:49;16.55;;;11.82;;
27778;SDS011;30234;48.090;11.464;2023-04-19T10:11:51;19.08;;;12.57;;
27778;SDS011;30234;48.090;11.464;2023-04-19T10:15:53;21.67;;;12.05;;
27778;SDS011;30234;48.090;11.464;2023-04-19T10:19:56;18.58;;;11.98;;
27778;SDS011;30234;48.090;11.464;2023-04-19T10:24:06;14.38;;;10.75;;
27778;SDS011;30234;48.090;11.464;2023-04-19T10:28:08;24.98;;;12.20;;
27778;SDS011;30234;48.090;11.464;2023-04-19T10:32:12;14.77;;;11.27;;
27778;SDS011;30234;48.090;11.464;2023-04-19T10:36:13;16.02;;;11.05;;
27778;SDS011;30234;48.090;11.464;2023-04-19T10:40:52;19.15;;;12.43;;
27778;SDS011;30234;48.090;11.464;2023-04-19T10:49:45;15.02;;;11.55;;
27778;SDS011;30234;48.090;11.464;2023-04-19T10:54:02;16.42;;;11.50;;
27778;SDS011;30234;48.090;11.464;2023-04-19T10:58:05;15.05;;;11.07;;
27778;SDS011;30234;48.090;11.464;2023-04-19T11:06:23;19.10;;;12.30;;
27778;SDS011;30234;48.090;11.464;2023-04-19T11:10:27;19.40;;;12.50;;
27778;SDS011;30234;48.090;11.464;2023-04-19T11:14:31;17.08;;;12.32;;
27778;SDS011;30234;48.090;11.464;2023-04-19T11:18:40;21.13;;;12.17;;
27778;SDS011;30234;48.090;11.464;2023-04-19T11:22:41;18.85;;;11.25;;
27778;SDS011;30234;48.090;11.464;2023-04-19T11:26:45;20.17;;;13.23;;
27778;SDS011;30234;48.090;11.464;2023-04-19T11:30:50;19.55;;;12.30;;
27778;SDS011;30234;48.090;11.464;2023-04-19T11:34:51;21.45;;;12.57;;
27778;SDS011;30234;48.090;11.464;2023-04-19T11:38:55;20.05;;;13.80;;
27778;SDS011;30234;48.090;11.464;2023-04-19T11:43:01;22.20;;;13.68;;
27778;SDS011;30234;48.090;11.464;2023-04-19T11:47:04;20.40;;;13.85;;
27778;SDS011;30234;48.090;11.464;2023-04-19T11:51:05;21.42;;;13.95;;
27778;SDS011;30234;48.090;11.464;2023-04-19T11:55:18;19.60;;;12.27;;
27778;SDS011;30234;48.090;11.464;2023-04-19T11:59:20;21.50;;;14.32;;
27778;SDS011;30234;48.090;11.464;2023-04-19T12:03:24;21.33;;;13.23;;
27778;SDS011;30234;48.090;11.464;2023-04-19T12:07:25;19.55;;;12.40;;
27778;SDS011;30234;48.090;11.464;2023-04-19T12:11:40;19.65;;;12.98;;
27778;SDS011;30234;48.090;11.464;2023-04-19T12:15:49;21.48;;;14.15;;
27778;SDS011;30234;48.090;11.464;2023-04-19T12:19:50;23.48;;;14.05;;
27778;SDS011;30234;48.090;11.464;2023-04-19T12:23:58;27.90;;;16.63;;
27778;SDS011;30234;48.090;11.464;2023-04-19T12:28:01;28.97;;;17.43;;
27778;SDS011;30234;48.090;11.464;2023-04-19T12:32:03;23.45;;;16.27;;
27778;SDS011;30234;48.090;11.464;2023-04-19T12:36:05;26.48;;;17.70;;
27778;SDS011;30234;48.090;11.464;2023-04-19T12:40:06;18.88;;;13.90;;
27778;SDS011;30234;48.090;11.464;2023-04-19T12:44:08;26.58;;;15.68;;
27778;SDS011;30234;48.090;11.464;2023-04-19T12:48:08;20.67;;;14.77;;
27778;SDS011;30234;48.090;11.464;2023-04-19T12:52:09;24.08;;;16.27;;
27778;SDS011;30234;48.090;11.464;2023-04-19T12:56:10;21.58;;;15.15;;
27778;SDS011;30234;48.090;11.464;2023-04-19T13:00:11;24.55;;;16.13;;
27778;SDS011;30234;48.090;11.464;2023-04-19T13:04:13;22.70;;;14.45;;
27778;SDS011;30234;48.090;11.464;2023-04-19T13:08:13;20.58;;;14.18;;
27778;SDS011;30234;48.090;11.464;2023-04-19T13:12:14;21.83;;;14.50;;
27778;SDS011;30234;48.090;11.464;2023-04-19T13:16:15;25.20;;;16.52;;
27778;SDS011;30234;48.090;11.464;2023-04-19T13:20:19;23.83;;;15.93;;
27778;SDS011;30234;48.090;11.464;2023-04-19T13:24:20;23.10;;;16.17;;
27778;SDS011;30234;48.090;11.464;2023-04-19T13:28:21;22.38;;;15.38;;
27778;SDS011;30234;48.090;11.464;2023-04-19T13:32:22;21.90;;;14.90;;
27778;SDS011;30234;48.090;11.464;2023-04-19T13:36:23;23.60;;;15.27;;
27778;SDS011;30234;48.090;11.464;2023-04-19T13:40:24;17.63;;;13.43;;
27778;SDS011;30234;48.090;11.464;2023-04-19T13:44:24;19.63;;;11.57;;
27778;SDS011;30234;48.090;11.464;2023-04-19T13:48:25;13.70;;;10.18;;
27778;SDS011;30234;48.090;11.464;2023-04-19T13:52:28;17.50;;;11.80;;
27778;SDS011;30234;48.090;11.464;2023-04-19T13:56:28;22.15;;;12.32;;
27778;SDS011;30234;48.090;11.464;2023-04-19T14:00:29;29.85;;;21.30;;
27778;SDS011;30234;48.090;11.464;2023-04-19T14:04:30;21.75;;;13.30;;
27778;SDS011;30234;48.090;11.464;2023-04-19T14:08:32;17.83;;;11.52;;
27778;SDS011;30234;48.090;11.464;2023-04-19T14:12:33;24.10;;;11.02;;
27778;SDS011;30234;48.090;11.464;2023-04-19T14:16:33;17.10;;;11.38;;
27778;SDS011;30234;48.090;11.464;2023-04-19T14:20:34;13.70;;;9.43;;
27778;SDS011;30234;48.090;11.464;2023-04-19T14:24:35;14.10;;;8.50;;
27778;SDS011;30234;48.090;11.464;2023-04-19T14:28:36;9.02;;;5.05;;
27778;SDS011;30234;48.090;11.464;2023-04-19T14:32:37;6.28;;;4.45;;
27778;SDS011;30234;48.090;11.464;2023-04-19T14:36:38;3.15;;;2.45;;
27778;SDS011;30234;48.090;11.464;2023-04-19T14:40:39;4.78;;;2.65;;
27778;SDS011;30234;48.090;11.464;2023-04-19T14:44:40;4.88;;;3.00;;
27778;SDS011;30234;48.090;11.464;2023-04-19T14:48:41;2.72;;;2.53;;
27778;SDS011;30234;48.090;11.464;2023-04-19T14:52:41;4.25;;;2.15;;
27778;SDS011;30234;48.090;11.464;2023-04-19T14:56:42;4.80;;;2.45;;
27778;SDS011;30234;48.090;11.464;2023-04-19T15:00:43;5.18;;;2.22;;
27778;SDS011;30234;48.090;11.464;2023-04-19T15:04:44;5.28;;;3.28;;
27778;SDS011;30234;48.090;11.464;2023-04-19T15:08:46;3.95;;;3.22;;
27778;SDS011;30234;48.090;11.464;2023-04-19T15:12:47;4.80;;;3.63;;
27778;SDS011;30234;48.090;11.464;2023-04-19T15:16:48;4.88;;;3.60;;
27778;SDS011;30234;48.090;11.464;2023-04-19T15:20:49;4.88;;;3.17;;
27778;SDS011;30234;48.090;11.464;2023-04-19T15:24:50;7.00;;;3.45;;
27778;SDS011;30234;48.090;11.464;2023-04-19T15:28:51;4.68;;;3.45;;
27778;SDS011;30234;48.090;11.464;2023-04-19T15:32:54;6.65;;;4.10;;
27778;SDS011;30234;48.090;11.464;2023-04-19T15:36:55;6.43;;;4.45;;
27778;SDS011;30234;48.090;11.464;2023-04-19T15:40:57;4.85;;;3.85;;
27778;SDS011;30234;48.090;11.464;2023-04-19T15:44:59;9.32;;;4.80;;
27778;SDS011;30234;48.090;11.464;2023-04-19T15:49:00;7.80;;;5.50;;
27778;SDS011;30234;48.090;11.464;2023-04-19T15:53:01;7.95;;;5.28;;
27778;SDS011;30234;48.090;11.464;2023-04-19T15:57:02;6.30;;;5.35;;
27778;SDS011;30234;48.090;11.464;2023-04-19T16:01:06;6.78;;;5.63;;
27778;SDS011;30234;48.090;11.464;2023-04-19T16:05:10;8.32;;;5.57;;
27778;SDS011;30234;48.090;11.464;2023-04-19T16:09:11;9.23;;;6.00;;
27778;SDS011;30234;48.090;11.464;2023-04-19T16:13:11;14.15;;;6.53;;
27778;SDS011;30234;48.090;11.464;2023-04-19T16:17:13;8.25;;;6.10;;
27778;SDS011;30234;48.090;11.464;2023-04-19T16:21:14;7.65;;;5.90;;
27778;SDS011;30234;48.090;11.464;2023-04-19T16:25:15;8.30;;;6.05;;
27778;SDS011;30234;48.090;11.464;2023-04-19T16:29:16;7.22;;;5.40;;
27778;SDS011;30234;48.090;11.464;2023-04-19T16:33:17;6.30;;;4.60;;
27778;SDS011;30234;48.090;11.464;2023-04-19T16:37:18;6.65;;;4.00;;
27778;SDS011;30234;48.090;11.464;2023-04-19T16:41:19;5.35;;;4.25;;
27778;SDS011;30234;48.090;11.464;2023-04-19T16:45:20;6.68;;;4.47;;
27778;SDS011;30234;48.090;11.464;2023-04-19T16:49:21;7.55;;;4.90;;
27778;SDS011;30234;48.090;11.464;2023-04-19T16:53:22;7.55;;;5.10;;
27778;SDS011;30234;48.090;11.464;2023-04-19T16:57:23;6.75;;;5.07;;
27778;SDS011;30234;48.090;11.464;2023-04-19T17:01:24;8.00;;;5.15;;
27778;SDS011;30234;48.090;11.464;2023-04-19T17:05:25;7.82;;;5.05;;
27778;SDS011;30234;48.090;11.464;2023-04-19T17:09:26;9.23;;;5.30;;
27778;SDS011;30234;48.090;11.464;2023-04-19T17:13:27;6.65;;;4.70;;
27778;SDS011;30234;48.090;11.464;2023-04-19T17:17:28;8.05;;;5.07;;
27778;SDS011;30234;48.090;11.464;2023-04-19T17:21:28;6.93;;;5.10;;
27778;SDS011;30234;48.090;11.464;2023-04-19T17:25:30;6.95;;;5.35;;
27778;SDS011;30234;48.090;11.464;2023-04-19T17:29:31;8.75;;;4.88;;
27778;SDS011;30234;48.090;11.464;2023-04-19T17:33:32;8.65;;;4.80;;
27778;SDS011;30234;48.090;11.464;2023-04-19T17:37:33;8.80;;;5.30;;
27778;SDS011;30234;48.090;11.464;2023-04-19T17:41:33;7.78;;;5.00;;
27778;SDS011;30234;48.090;11.464;2023-04-19T17:45:34;7.45;;;4.80;;
27778;SDS011;30234;48.090;11.464;2023-04-19T17:49:35;5.10;;;3.92;;
27778;SDS011;30234;48.090;11.464;2023-04-19T17:53:36;5.43;;;4.32;;
27778;SDS011;30234;48.090;11.464;2023-04-19T17:57:37;5.25;;;3.50;;
27778;SDS011;30234;48.090;11.464;2023-04-19T18:01:39;5.63;;;4.00;;
27778;SDS011;30234;48.090;11.464;2023-04-19T18:05:40;5.45;;;3.53;;
27778;SDS011;30234;48.090;11.464;2023-04-19T18:09:41;4.97;;;3.60;;
27778;SDS011;30234;48.090;11.464;2023-04-19T18:13:42;4.78;;;3.67;;
27778;SDS011;30234;48.090;11.464;2023-04-19T18:17:44;4.32;;;3.58;;
27778;SDS011;30234;48.090;11.464;2023-04-19T18:21:45;5.32;;;3.53;;
27778;SDS011;30234;48.090;11.464;2023-04-19T18:25:52;5.95;;;3.28;;
27778;SDS011;30234;48.090;11.464;2023-04-19T18:29:54;5.70;;;3.85;;
27778;SDS011;30234;48.090;11.464;2023-04-19T18:33:54;4.60;;;3.30;;
27778;SDS011;30234;48.090;11.464;2023-04-19T18:37:55;6.80;;;3.78;;
27778;SDS011;30234;48.090;11.464;2023-04-19T18:41:56;5.95;;;3.75;;
27778;SDS011;30234;48.090;11.464;2023-04-19T18:45:57;4.40;;;3.40;;
27778;SDS011;30234;48.090;11.464;2023-04-19T18:49:59;6.82;;;3.75;;
27778;SDS011;30234;48.090;11.464;2023-04-19T18:54:00;4.00;;;3.17;;
27778;SDS011;30234;48.090;11.464;2023-04-19T18:58:01;5.15;;;3.30;;
27778;SDS011;30234;48.090;11.464;2023-04-19T19:02:02;3.78;;;2.72;;
27778;SDS011;30234;48.090;11.464;2023-04-19T19:06:03;3.53;;;3.03;;
27778;SDS011;30234;48.090;11.464;2023-04-19T19:10:05;3.78;;;2.67;;
27778;SDS011;30234;48.090;11.464;2023-04-19T19:14:08;3.45;;;3.05;;
27778;SDS011;30234;48.090;11.464;2023-04-19T19:18:09;4.20;;;3.22;;
27778;SDS011;30234;48.090;11.464;2023-04-19T19:22:10;3.67;;;3.05;;
27778;SDS011;30234;48.090;11.464;2023-04-19T19:26:11;3.90;;;3.42;;
27778;SDS011;30234;48.090;11.464;2023-04-19T19:30:12;4.55;;;3.33;;
27778;SDS011;30234;48.090;11.464;2023-04-19T19:34:14;4.45;;;2.90;;
27778;SDS011;30234;48.090;11.464;2023-04-19T19:38:14;4.53;;;3.15;;
27778;SDS011;30234;48.090;11.464;2023-04-19T19:42:16;3.05;;;2.75;;
27778;SDS011;30234;48.090;11.464;2023-04-19T19:46:17;6.05;;;3.30;;
27778;SDS011;30234;48.090;11.464;2023-04-19T19:50:18;6.22;;;3.95;;
27778;SDS011;30234;48.090;11.464;2023-04-19T19:54:20;3.35;;;2.80;;
27778;SDS011;30234;48.090;11.464;2023-04-19T19:58:21;6.13;;;3.53;;
27778;SDS011;30234;48.090;11.464;2023-04-19T20:02:22;4.55;;;3.80;;
27778;SDS011;30234;48.090;11.464;2023-04-19T20:06:23;4.65;;;3.25;;
27778;SDS011;30234;48.090;11.464;2023-04-19T20:10:24;3.42;;;3.13;;
27778;SDS011;30234;48.090;11.464;2023-04-19T20:14:25;5.10;;;3.92;;
27778;SDS011;30234;48.090;11.464;2023-04-19T20:18:26;4.70;;;3.60;;
27778;SDS011;30234;48.090;11.464;2023-04-19T20:22:28;5.70;;;3.50;;
27778;SDS011;30234;48.090;11.464;2023-04-19T20:26:29;7.88;;;4.55;;
27778;SDS011;30234;48.090;11.464;2023-04-19T20:30:30;5.10;;;3.97;;
27778;SDS011;30234;48.090;11.464;2023-04-19T20:34:31;4.45;;;3.50;;
27778;SDS011;30234;48.090;11.464;2023-04-19T20:38:32;3.92;;;3.45;;
27778;SDS011;30234;48.090;11.464;2023-04-19T20:42:33;6.85;;;4.70;;
27778;SDS011;30234;48.090;11.464;2023-04-19T20:46:34;5.53;;;3.85;;
27778;SDS011;30234;48.090;11.464;2023-04-19T20:50:35;4.40;;;3.30;;
27778;SDS011;30234;48.090;11.464;2023-04-19T20:54:36;5.32;;;4.05;;
27778;SDS011;30234;48.090;11.464;2023-04-19T20:58:37;5.18;;;3.80;;
27778;SDS011;30234;48.090;11.464;2023-04-19T21:02:39;4.25;;;3.45;;
27778;SDS011;30234;48.090;11.464;2023-04-19T21:06:40;4.47;;;3.40;;
27778;SDS011;30234;48.090;11.464;2023-04-19T21:10:41;4.70;;;3.35;;
27778;SDS011;30234;48.090;11.464;2023-04-19T21:14:42;4.90;;;3.38;;
27778;SDS011;30234;48.090;11.464;2023-04-19T21:18:43;4.80;;;3.92;;
27778;SDS011;30234;48.090;11.464;2023-04-19T21:22:44;4.40;;;3.75;;
27778;SDS011;30234;48.090;11.464;2023-04-19T21:26:46;5.93;;;3.65;;
27778;SDS011;30234;48.090;11.464;2023-04-19T21:30:47;7.38;;;4.13;;
27778;SDS011;30234;48.090;11.464;2023-04-19T21:34:48;5.38;;;4.20;;
27778;SDS011;30234;48.090;11.464;2023-04-19T21:38:49;5.40;;;3.70;;
27778;SDS011;30234;48.090;11.464;2023-04-19T21:42:50;14.38;;;6.00;;
27778;SDS011;30234;48.090;11.464;2023-04-19T21:46:51;16.30;;;6.82;;
27778;SDS011;30234;48.090;11.464;2023-04-19T21:50:51;16.70;;;6.97;;
27778;SDS011;30234;48.090;11.464;2023-04-19T21:54:52;11.98;;;6.00;;
27778;SDS011;30234;48.090;11.464;2023-04-19T21:58:53;10.77;;;5.55;;
27778;SDS011;30234;48.090;11.464;2023-04-19T22:02:54;13.85;;;7.28;;
27778;SDS011;30234;48.090;11.464;2023-04-19T22:06:55;12.88;;;7.20;;
27778;SDS011;30234;48.090;11.464;2023-04-19T22:11:02;9.98;;;6.05;;
27778;SDS011;30234;48.090;11.464;2023-04-19T22:15:03;8.63;;;5.88;;
27778;SDS011;30234;48.090;11.464;2023-04-19T22:19:05;6.60;;;4.43;;
27778;SDS011;30234;48.090;11.464;2023-04-19T22:23:06;6.40;;;4.97;;
27778;SDS011;30234;48.090;11.464;2023-04-19T22:27:07;11.57;;;6.55;;
27778;SDS011;30234;48.090;11.464;2023-04-19T22:31:08;10.68;;;6.68;;
27778;SDS011;30234;48.090;11.464;2023-04-19T22:35:09;11.35;;;6.30;;
27778;SDS011;30234;48.090;11.464;2023-04-19T22:39:10;12.10;;;6.90;;
27778;SDS011;30234;48.090;11.464;2023-04-19T22:43:11;12.23;;;6.28;;
27778;SDS011;30234;48.090;11.464;2023-04-19T22:47:12;9.60;;;6.40;;
27778;SDS011;30234;48.090;11.464;2023-04-19T22:51:13;7.32;;;6.00;;
27778;SDS011;30234;48.090;11.464;2023-04-19T22:55:17;9.18;;;5.90;;
27778;SDS011;30234;48.090;11.464;2023-04-19T22:59:18;9.85;;;6.93;;
27778;SDS011;30234;48.090;11.464;2023-04-19T23:03:18;9.68;;;7.18;;
27778;SDS011;30234;48.090;11.464;2023-04-19T23:07:19;11.65;;;7.38;;
27778;SDS011;30234;48.090;11.464;2023-04-19T23:11:21;14.13;;;7.30;;
27778;SDS011;30234;48.090;11.464;2023-04-19T23:15:25;11.15;;;7.50;;
27778;SDS011;30234;48.090;11.464;2023-04-19T23:19:28;9.73;;;7.32;;
27778;SDS011;30234;48.090;11.464;2023-04-19T23:23:29;11.85;;;7.50;;
27778;SDS011;30234;48.090;11.464;2023-04-19T23:27:31;8.80;;;6.80;;
27778;SDS011;30234;48.090;11.464;2023-04-19T23:31:32;10.85;;;6.75;;
27778;SDS011;30234;48.090;11.464;2023-04-19T23:35:33;10.07;;;6.75;;
27778;SDS011;30234;48.090;11.464;2023-04-19T23:39:34;10.75;;;7.10;;
27778;SDS011;30234;48.090;11.464;2023-04-19T23:43:35;10.10;;;7.20;;
27778;SDS011;30234;48.090;11.464;2023-04-19T23:47:35;12.68;;;7.15;;
27778;SDS011;30234;48.090;11.464;2023-04-19T23:51:36;9.15;;;7.50;;
27778;SDS011;30234;48.090;11.464;2023-04-19T23:55:37;11.00;;;8.55;;
27778;SDS011;30234;48.090;11.464;2023-04-19T23:59:38;10.98;;;8.43;;
